Time;durP1;ratioP1;P1;durP2;ratioP2;P2;SDS_P1;SDS_P2;PMS_P1;PMS_P2;Temp;Humidity;BMP_temperature;BMP_pressure;BME280_temperature;BME280_humidity;BME280_pressure;Samples;Min_cycle;Max_cycle;Signal;HPM_P1;HPM_P2
2022/11/30 00:03:25;;;;;;;28.23;25.33;;;;;;;;;;9992026;28;20054;-65
2022/11/30 00:08:19;;;;;;;27.90;25.05;;;;;;;;;;9991738;28;20516;-65
2022/11/30 00:13:13;;;;;;;29.92;25.83;;;;;;;;;;9992084;28;20050;-65
2022/11/30 00:18:06;;;;;;;29.67;24.55;;;;;;;;;;9991884;28;20129;-65
2022/11/30 00:23:01;;;;;;;31.50;26.38;;;;;;;;;;9992175;28;20567;-65
2022/11/30 00:27:54;;;;;;;31.38;28.10;;;;;;;;;;9990847;28;20104;-65
2022/11/30 00:32:48;;;;;;;32.20;27.08;;;;;;;;;;9990889;28;20082;-65
2022/11/30 00:37:42;;;;;;;27.65;24.58;;;;;;;;;;9991419;28;20117;-65
2022/11/30 00:42:37;;;;;;;30.33;25.08;;;;;;;;;;9990764;28;20116;-65
2022/11/30 00:47:31;;;;;;;28.25;25.33;;;;;;;;;;9990454;28;20050;-65
2022/11/30 00:52:24;;;;;;;29.88;25.08;;;;;;;;;;9990145;28;20054;-65
2022/11/30 00:57:17;;;;;;;31.77;25.45;;;;;;;;;;9989840;28;20121;-65
2022/11/30 01:02:12;;;;;;;29.55;25.17;;;;;;;;;;9989807;28;20058;-66
2022/11/30 01:07:05;;;;;;;28.77;25.67;;;;;;;;;;9989969;28;20050;-65
2022/11/30 01:12:00;;;;;;;31.35;26.55;;;;;;;;;;9990409;28;20073;-65
2022/11/30 01:16:54;;;;;;;31.73;24.75;;;;;;;;;;9989265;28;20053;-65
2022/11/30 01:21:48;;;;;;;29.65;26.55;;;;;;;;;;9989510;28;20081;-65
2022/11/30 01:26:42;;;;;;;28.08;25.17;;;;;;;;;;9989331;28;20082;-65
2022/11/30 01:31:35;;;;;;;30.25;25.77;;;;;;;;;;9989159;28;20062;-65
2022/11/30 01:36:29;;;;;;;33.88;27.65;;;;;;;;;;9988922;28;20074;-65
2022/11/30 01:41:29;;;;;;;30.23;25.98;;;;;;;;;;9988786;28;20054;-65
2022/11/30 01:47:06;;;;;;;32.65;27.95;;;;;;;;;;9966669;28;20058;-65
2022/11/30 01:52:14;;;;;;;30.10;26.88;;;;;;;;;;9987959;28;20138;-65
2022/11/30 01:57:19;;;;;;;28.70;25.75;;;;;;;;;;9969581;28;20054;-65
2022/11/30 02:02:13;;;;;;;31.50;26.85;;;;;;;;;;9987906;28;20081;-65
2022/11/30 02:07:08;;;;;;;27.55;24.52;;;;;;;;;;9988001;28;20046;-65
2022/11/30 02:12:05;;;;;;;28.77;25.80;;;;;;;;;;9987653;28;20065;-65
2022/11/30 02:17:19;;;;;;;29.42;26.23;;;;;;;;;;9987772;28;20055;-65
2022/11/30 02:22:41;;;;;;;27.95;24.27;;;;;;;;;;9987688;28;20476;-65
2022/11/30 02:28:15;;;;;;;30.73;25.17;;;;;;;;;;9980606;28;20129;-64
2022/11/30 02:33:15;;;;;;;28.98;25.77;;;;;;;;;;9985867;28;20405;-65
2022/11/30 02:38:09;;;;;;;29.33;26.20;;;;;;;;;;9987471;28;20041;-65
2022/11/30 02:43:04;;;;;;;30.17;26.88;;;;;;;;;;9968523;28;20537;-65
2022/11/30 02:48:10;;;;;;;32.47;28.17;;;;;;;;;;9987505;28;20054;-65
2022/11/30 02:53:04;;;;;;;28.50;24.20;;;;;;;;;;9975607;28;20568;-66
2022/11/30 02:57:57;;;;;;;33.25;26.63;;;;;;;;;;9994000;28;20050;-65
2022/11/30 03:02:51;;;;;;;30.17;24.48;;;;;;;;;;9994624;28;20069;-65
2022/11/30 03:07:44;;;;;;;30.75;26.23;;;;;;;;;;9994586;28;20056;-65
2022/11/30 03:12:38;;;;;;;29.73;26.52;;;;;;;;;;9994546;28;20054;-65
2022/11/30 03:17:31;;;;;;;27.75;24.77;;;;;;;;;;9994027;28;20046;-65
2022/11/30 03:22:24;;;;;;;31.58;28.27;;;;;;;;;;9993779;28;20050;-65
2022/11/30 03:27:18;;;;;;;30.60;25.40;;;;;;;;;;9993803;28;20138;-65
2022/11/30 03:32:12;;;;;;;30.05;26.90;;;;;;;;;;9993690;28;20143;-65
2022/11/30 03:37:06;;;;;;;29.63;26.45;;;;;;;;;;9993489;28;20055;-65
2022/11/30 03:42:00;;;;;;;29.85;26.73;;;;;;;;;;9992611;28;20156;-65
2022/11/30 03:46:54;;;;;;;31.83;27.70;;;;;;;;;;9993039;28;20100;-65
2022/11/30 03:51:48;;;;;;;29.25;26.17;;;;;;;;;;9992590;28;20050;-65
2022/11/30 03:56:42;;;;;;;29.90;26.85;;;;;;;;;;9992808;28;20057;-65
2022/11/30 04:01:38;;;;;;;31.23;27.83;;;;;;;;;;9991714;28;20046;-64
2022/11/30 04:06:32;;;;;;;31.33;27.35;;;;;;;;;;9992317;28;20096;-65
2022/11/30 04:11:26;;;;;;;31.48;27.48;;;;;;;;;;9992706;28;20050;-65
2022/11/30 04:16:20;;;;;;;34.67;27.15;;;;;;;;;;9991795;28;20562;-65
2022/11/30 04:21:14;;;;;;;31.90;28.70;;;;;;;;;;9991677;28;20525;-64
2022/11/30 04:26:13;;;;;;;34.58;28.55;;;;;;;;;;9991862;28;20042;-65
2022/11/30 04:31:10;;;;;;;30.65;27.48;;;;;;;;;;9991267;28;20497;-65
2022/11/30 04:36:07;;;;;;;41.80;29.58;;;;;;;;;;9991242;28;20056;-65
2022/11/30 04:41:06;;;;;;;31.52;27.65;;;;;;;;;;9990526;28;20066;-65
2022/11/30 04:46:01;;;;;;;30.30;26.88;;;;;;;;;;9990805;28;20461;-65
2022/11/30 04:51:19;;;;;;;31.67;27.15;;;;;;;;;;9990157;28;20062;-65
2022/11/30 04:56:13;;;;;;;28.88;25.77;;;;;;;;;;9982343;28;20414;-65
2022/11/30 05:01:07;;;;;;;34.90;26.70;;;;;;;;;;9990216;28;20054;-65
2022/11/30 05:06:01;;;;;;;27.50;24.63;;;;;;;;;;9989528;28;20447;-65
2022/11/30 05:10:56;;;;;;;32.60;28.40;;;;;;;;;;9990948;28;20050;-65
2022/11/30 05:15:52;;;;;;;29.15;25.98;;;;;;;;;;9989222;28;20054;-65
2022/11/30 05:20:50;;;;;;;29.60;25.95;;;;;;;;;;9989478;28;20050;-65
2022/11/30 05:25:44;;;;;;;28.70;25.60;;;;;;;;;;9989131;28;20121;-65
2022/11/30 05:31:03;;;;;;;28.58;25.52;;;;;;;;;;9989311;28;20143;-65
2022/11/30 05:35:57;;;;;;;29.50;26.13;;;;;;;;;;9987979;28;20058;-65
2022/11/30 05:40:50;;;;;;;30.02;26.52;;;;;;;;;;9989560;28;20050;-64
2022/11/30 05:45:45;;;;;;;29.70;25.98;;;;;;;;;;9986445;28;20125;-65
2022/11/30 05:50:39;;;;;;;30.23;26.95;;;;;;;;;;9987280;28;20125;-65
2022/11/30 05:55:32;;;;;;;30.85;27.40;;;;;;;;;;9982795;28;20391;-65
2022/11/30 06:00:26;;;;;;;32.47;27.40;;;;;;;;;;9987034;28;20062;-65
2022/11/30 06:05:19;;;;;;;32.53;28.45;;;;;;;;;;9984691;28;20054;-64
2022/11/30 06:10:14;;;;;;;37.58;32.20;;;;;;;;;;9984839;28;20058;-65
2022/11/30 06:15:09;;;;;;;35.70;31.63;;;;;;;;;;9985626;28;20050;-65
2022/11/30 06:20:08;;;;;;;36.03;32.08;;;;;;;;;;9985053;28;20038;-64
2022/11/30 06:25:02;;;;;;;39.72;33.38;;;;;;;;;;9983474;28;20051;-64
2022/11/30 06:29:56;;;;;;;37.13;32.97;;;;;;;;;;9992587;28;20070;-64
2022/11/30 06:34:49;;;;;;;40.33;35.13;;;;;;;;;;9990598;28;20057;-64
2022/11/30 06:39:43;;;;;;;42.80;36.85;;;;;;;;;;9991333;28;20129;-64
2022/11/30 06:44:57;;;;;;;43.47;34.53;;;;;;;;;;9991902;28;20097;-64
2022/11/30 06:49:52;;;;;;;36.33;31.83;;;;;;;;;;9990711;28;20076;-64
2022/11/30 06:54:46;;;;;;;40.78;33.10;;;;;;;;;;9991978;28;20069;-64
2022/11/30 06:59:45;;;;;;;37.13;32.45;;;;;;;;;;9992119;28;20046;-64
2022/11/30 07:04:39;;;;;;;34.83;30.37;;;;;;;;;;9993441;28;20081;-64
2022/11/30 07:09:52;;;;;;;42.47;35.92;;;;;;;;;;9990925;28;20081;-63
2022/11/30 07:14:55;;;;;;;39.25;32.15;;;;;;;;;;9981748;28;20062;-63
2022/11/30 07:19:49;;;;;;;37.05;32.97;;;;;;;;;;9986274;28;20061;-63
2022/11/30 07:29:56;;;;;;;42.03;31.83;;;;;;;;;;9992089;28;20137;-63
2022/11/30 07:34:50;;;;;;;33.38;27.67;;;;;;;;;;9991084;28;20050;-64
2022/11/30 07:39:44;;;;;;;38.63;32.80;;;;;;;;;;9988725;28;20078;-65
2022/11/30 07:44:38;;;;;;;37.40;30.10;;;;;;;;;;9991339;28;20048;-65
2022/11/30 07:49:32;;;;;;;38.45;31.25;;;;;;;;;;9991718;28;20050;-65
2022/11/30 07:54:27;;;;;;;44.58;38.13;;;;;;;;;;9987221;28;20061;-64
2022/11/30 07:59:21;;;;;;;42.88;35.53;;;;;;;;;;9970935;28;20062;-64
2022/11/30 08:04:15;;;;;;;44.03;34.72;;;;;;;;;;9983846;28;20060;-64
2022/11/30 08:09:12;;;;;;;39.92;35.55;;;;;;;;;;9986600;28;20429;-64
2022/11/30 08:14:13;;;;;;;39.55;34.97;;;;;;;;;;9987182;28;20065;-64
2022/11/30 08:19:07;;;;;;;44.03;34.17;;;;;;;;;;9987958;28;20505;-63
2022/11/30 08:24:00;;;;;;;48.95;36.30;;;;;;;;;;9986933;28;20505;-63
2022/11/30 08:28:56;;;;;;;43.10;32.83;;;;;;;;;;9987127;28;20050;-63
2022/11/30 08:33:55;;;;;;;37.85;32.97;;;;;;;;;;9985661;28;20137;-63
2022/11/30 08:38:49;;;;;;;40.35;33.92;;;;;;;;;;9987370;28;20058;-64
2022/11/30 08:43:43;;;;;;;41.80;36.05;;;;;;;;;;9983249;28;20054;-64
2022/11/30 08:48:37;;;;;;;42.72;36.92;;;;;;;;;;9986651;28;20046;-63
2022/11/30 08:53:31;;;;;;;50.58;41.03;;;;;;;;;;9988863;28;20054;-63
2022/11/30 08:58:26;;;;;;;43.67;35.30;;;;;;;;;;9989341;28;20042;-62
2022/11/30 09:03:20;;;;;;;44.30;36.00;;;;;;;;;;9986665;28;20414;-62
2022/11/30 09:08:13;;;;;;;40.75;34.80;;;;;;;;;;9989314;28;20129;-62
2022/11/30 09:13:07;;;;;;;44.40;35.63;;;;;;;;;;9987685;28;20112;-62
2022/11/30 09:18:01;;;;;;;40.53;33.67;;;;;;;;;;9987512;28;20065;-63
2022/11/30 09:22:55;;;;;;;60.80;46.22;;;;;;;;;;9987282;28;20046;-63
2022/11/30 09:27:49;;;;;;;43.38;35.83;;;;;;;;;;9985535;28;20081;-63
2022/11/30 09:32:42;;;;;;;41.80;33.40;;;;;;;;;;9983644;28;20142;-63
2022/11/30 09:37:37;;;;;;;40.75;35.83;;;;;;;;;;9983888;28;20077;-63
2022/11/30 09:42:49;;;;;;;46.30;37.60;;;;;;;;;;9983543;28;20075;-63
2022/11/30 09:48:12;;;;;;;46.70;38.70;;;;;;;;;;9966896;28;20130;-63
2022/11/30 09:53:13;;;;;;;42.22;37.20;;;;;;;;;;9982238;28;20112;-63
2022/11/30 09:58:09;;;;;;;46.50;36.80;;;;;;;;;;9970395;28;20125;-63
2022/11/30 10:03:04;;;;;;;49.78;41.17;;;;;;;;;;9971126;28;20042;-63
2022/11/30 10:08:01;;;;;;;55.70;48.90;;;;;;;;;;9987137;28;20054;-63
2022/11/30 10:13:38;;;;;;;57.40;50.10;;;;;;;;;;9985920;28;20050;-63
2022/11/30 10:18:49;;;;;;;54.60;43.45;;;;;;;;;;9954970;28;20486;-63
2022/11/30 10:23:52;;;;;;;44.30;39.38;;;;;;;;;;9986330;28;20514;-63
2022/11/30 10:28:50;;;;;;;44.28;39.67;;;;;;;;;;9987733;28;20389;-63
2022/11/30 10:33:51;;;;;;;45.88;40.78;;;;;;;;;;9987423;28;20092;-63
2022/11/30 10:38:47;;;;;;;49.20;40.15;;;;;;;;;;9985974;28;20065;-63
2022/11/30 10:43:53;;;;;;;42.75;37.40;;;;;;;;;;9987001;28;20042;-63
2022/11/30 10:49:02;;;;;;;43.55;38.50;;;;;;;;;;9987267;28;20050;-63
2022/11/30 10:53:57;;;;;;;41.57;37.00;;;;;;;;;;9968324;28;20054;-63
2022/11/30 10:59:01;;;;;;;38.72;34.20;;;;;;;;;;9983636;28;20784;-63
2022/11/30 11:04:21;;;;;;;42.30;34.33;;;;;;;;;;9985965;28;20055;-63
2022/11/30 11:09:27;;;;;;;35.70;31.83;;;;;;;;;;9986306;28;20129;-63
2022/11/30 11:14:22;;;;;;;36.53;30.58;;;;;;;;;;9990308;28;20479;-63
2022/11/30 11:19:23;;;;;;;37.15;32.22;;;;;;;;;;9993212;28;20318;-63
2022/11/30 11:24:18;;;;;;;34.10;27.48;;;;;;;;;;9993023;28;20058;-63
2022/11/30 11:29:30;;;;;;;29.58;24.08;;;;;;;;;;9993319;28;20046;-63
2022/11/30 11:34:23;;;;;;;30.23;25.50;;;;;;;;;;9992052;28;20065;-63
2022/11/30 11:39:27;;;;;;;20.95;16.15;;;;;;;;;;9991589;28;20403;-63
2022/11/30 11:44:21;;;;;;;20.27;14.00;;;;;;;;;;9991275;28;20086;-64
2022/11/30 11:49:21;;;;;;;18.70;15.40;;;;;;;;;;9992192;28;20055;-63
2022/11/30 11:54:43;;;;;;;19.45;14.23;;;;;;;;;;9981426;28;20077;-63
2022/11/30 11:59:44;;;;;;;21.63;16.15;;;;;;;;;;9988156;28;20097;-64
2022/11/30 12:04:45;;;;;;;22.92;17.65;;;;;;;;;;9986500;28;20493;-64
2022/11/30 12:09:43;;;;;;;30.25;17.33;;;;;;;;;;9987693;28;20075;-64
2022/11/30 12:14:37;;;;;;;19.50;16.88;;;;;;;;;;9970344;28;20053;-64
2022/11/30 12:19:44;;;;;;;20.58;16.73;;;;;;;;;;9986849;28;20707;-64
2022/11/30 12:24:52;;;;;;;20.50;17.60;;;;;;;;;;9985823;28;20825;-64
2022/11/30 12:30:05;;;;;;;23.27;18.52;;;;;;;;;;9985803;28;20061;-64
2022/11/30 12:35:35;;;;;;;21.23;16.98;;;;;;;;;;9984985;28;20093;-64
2022/11/30 12:40:58;;;;;;;23.60;18.75;;;;;;;;;;9984389;28;20053;-63
2022/11/30 12:45:58;;;;;;;22.17;16.85;;;;;;;;;;9986268;28;20058;-63
2022/11/30 12:51:18;;;;;;;21.08;16.90;;;;;;;;;;9988703;28;20105;-63
2022/11/30 12:56:36;;;;;;;24.20;16.45;;;;;;;;;;9990083;28;20221;-63
2022/11/30 13:01:55;;;;;;;23.05;16.23;;;;;;;;;;9989492;28;20125;-63
2022/11/30 13:07:12;;;;;;;24.50;18.88;;;;;;;;;;9989686;28;20104;-66
2022/11/30 13:12:11;;;;;;;23.13;17.20;;;;;;;;;;9986934;28;20078;-66
2022/11/30 13:17:12;;;;;;;;;;;;;;;;;;9987859;28;20053;-63
2022/11/30 13:22:13;;;;;;;24.75;17.23;;;;;;;;;;9968762;28;19926;-65
2022/11/30 13:27:22;;;;;;;22.23;15.27;;;;;;;;;;9952269;28;20060;-65
2022/11/30 13:32:15;;;;;;;22.98;16.45;;;;;;;;;;9985734;28;20101;-65
2022/11/30 13:37:29;;;;;;;22.30;16.85;;;;;;;;;;9973306;28;20101;-65
2022/11/30 13:42:41;;;;;;;22.48;16.08;;;;;;;;;;9988376;28;20073;-64
2022/11/30 13:47:46;;;;;;;;;;;;;;;;;;9972867;28;20152;-64
2022/11/30 13:53:02;;;;;;;20.30;16.20;;;;;;;;;;9996060;28;19929;-63
2022/11/30 13:57:55;;;;;;;24.73;17.27;;;;;;;;;;9987801;28;20049;-64
2022/11/30 14:02:52;;;;;;;20.58;16.42;;;;;;;;;;9988321;28;20042;-62
2022/11/30 14:08:06;;;;;;;21.65;16.17;;;;;;;;;;9988026;28;20064;-62
2022/11/30 14:13:01;;;;;;;22.55;16.05;;;;;;;;;;9987037;28;20077;-65
2022/11/30 14:17:55;;;;;;;22.90;16.15;;;;;;;;;;9985888;28;20070;-65
2022/11/30 14:22:49;;;;;;;23.98;17.77;;;;;;;;;;9986482;28;20042;-65
2022/11/30 14:27:44;;;;;;;21.35;16.50;;;;;;;;;;9964357;28;20141;-65
2022/11/30 14:32:41;;;;;;;26.13;16.27;;;;;;;;;;9986330;28;20058;-64
2022/11/30 14:38:21;;;;;;;28.00;18.40;;;;;;;;;;9968907;28;20520;-65
2022/11/30 14:43:17;;;;;;;27.08;19.20;;;;;;;;;;9842664;28;20124;-65
2022/11/30 14:48:13;;;;;;;25.75;18.73;;;;;;;;;;9985997;28;20057;-65
2022/11/30 14:53:37;;;;;;;22.90;17.38;;;;;;;;;;9990667;28;20133;-65
2022/11/30 14:58:54;;;;;;;26.05;19.67;;;;;;;;;;9976984;28;20137;-64
2022/11/30 15:03:54;;;;;;;23.13;18.60;;;;;;;;;;9977800;28;20074;-65
2022/11/30 15:08:53;;;;;;;24.30;18.90;;;;;;;;;;9992547;28;20038;-65
2022/11/30 15:13:57;;;;;;;24.17;19.40;;;;;;;;;;9973654;28;20438;-66
2022/11/30 15:18:52;;;;;;;26.58;18.90;;;;;;;;;;9975737;28;20046;-65
2022/11/30 15:23:46;;;;;;;25.10;18.55;;;;;;;;;;9993201;28;20050;-66
2022/11/30 15:28:50;;;;;;;29.67;18.75;;;;;;;;;;9990301;28;20116;-65
2022/11/30 15:33:48;;;;;;;25.25;17.35;;;;;;;;;;9992141;28;20050;-66
2022/11/30 15:38:42;;;;;;;22.92;16.70;;;;;;;;;;9988935;28;20109;-66
2022/11/30 15:43:39;;;;;;;23.85;15.85;;;;;;;;;;9974161;28;20053;-66
2022/11/30 15:48:37;;;;;;;30.23;19.20;;;;;;;;;;9989454;28;20128;-65
2022/11/30 15:53:49;;;;;;;32.83;20.20;;;;;;;;;;9992279;28;20054;-65
2022/11/30 15:59:17;;;;;;;30.80;22.23;;;;;;;;;;9990745;28;20042;-65
2022/11/30 16:04:11;;;;;;;30.40;20.35;;;;;;;;;;9988183;28;20129;-65
2022/11/30 16:09:31;;;;;;;25.25;19.42;;;;;;;;;;9988636;28;20056;-65
2022/11/30 16:14:24;;;;;;;28.13;19.80;;;;;;;;;;9988550;28;20104;-65
2022/11/30 16:19:18;;;;;;;31.67;25.35;;;;;;;;;;9988659;28;20134;-65
2022/11/30 16:24:13;;;;;;;33.58;24.42;;;;;;;;;;9990472;28;20052;-65
2022/11/30 16:29:07;;;;;;;26.55;18.75;;;;;;;;;;9990452;28;20141;-65
2022/11/30 16:34:00;;;;;;;25.88;19.08;;;;;;;;;;9972548;28;20556;-64
2022/11/30 16:38:56;;;;;;;25.77;18.75;;;;;;;;;;9989591;28;20133;-64
2022/11/30 16:43:52;;;;;;;27.15;18.85;;;;;;;;;;9989403;28;20077;-64
2022/11/30 16:48:46;;;;;;;23.25;18.23;;;;;;;;;;9988563;28;20062;-64
2022/11/30 16:53:40;;;;;;;25.23;20.30;;;;;;;;;;9989662;28;20129;-65
2022/11/30 16:58:34;;;;;;;25.20;20.38;;;;;;;;;;9988523;28;20101;-64
2022/11/30 17:03:30;;;;;;;27.98;19.05;;;;;;;;;;9988927;28;20059;-64
2022/11/30 17:08:24;;;;;;;22.00;17.67;;;;;;;;;;9972234;28;20125;-64
2022/11/30 17:13:18;;;;;;;24.90;17.90;;;;;;;;;;9987935;28;20046;-64
2022/11/30 17:18:12;;;;;;;27.15;19.38;;;;;;;;;;9985691;28;20057;-64
2022/11/30 17:23:07;;;;;;;32.05;22.17;;;;;;;;;;9986738;28;20072;-64
2022/11/30 17:28:01;;;;;;;36.88;24.23;;;;;;;;;;9989409;28;20061;-64
2022/11/30 17:32:55;;;;;;;37.20;24.60;;;;;;;;;;9987912;28;20053;-64
2022/11/30 17:37:49;;;;;;;59.75;45.72;;;;;;;;;;9985030;28;20065;-64
2022/11/30 17:42:42;;;;;;;35.08;29.35;;;;;;;;;;9986936;28;20062;-64
2022/11/30 17:47:37;;;;;;;38.47;30.90;;;;;;;;;;9986463;28;20058;-64
2022/11/30 17:52:30;;;;;;;48.45;37.03;;;;;;;;;;9983510;28;20050;-77
2022/11/30 17:57:24;;;;;;;35.63;27.92;;;;;;;;;;9984487;28;20054;-64
2022/11/30 18:02:18;;;;;;;27.23;21.15;;;;;;;;;;9981123;28;20457;-65
2022/11/30 18:07:12;;;;;;;28.58;22.20;;;;;;;;;;9982450;28;20074;-65
2022/11/30 18:12:06;;;;;;;27.95;21.13;;;;;;;;;;9985285;28;20038;-64
2022/11/30 18:17:01;;;;;;;29.50;22.15;;;;;;;;;;9984804;28;20048;-66
2022/11/30 18:21:55;;;;;;;28.17;20.88;;;;;;;;;;9985426;28;20039;-65
2022/11/30 18:26:48;;;;;;;25.80;19.25;;;;;;;;;;9992443;28;20141;-66
2022/11/30 18:31:42;;;;;;;29.52;22.48;;;;;;;;;;9992034;28;20069;-65
2022/11/30 18:36:35;;;;;;;29.52;21.13;;;;;;;;;;9993922;28;20046;-65
2022/11/30 18:41:29;;;;;;;29.45;20.75;;;;;;;;;;9992930;28;20129;-63
2022/11/30 18:46:22;;;;;;;25.17;19.42;;;;;;;;;;9976290;28;20398;-65
2022/11/30 18:51:22;;;;;;;28.17;18.38;;;;;;;;;;9994003;28;20050;-65
2022/11/30 18:56:18;;;;;;;26.80;20.50;;;;;;;;;;9989199;28;20058;-64
2022/11/30 19:01:17;;;;;;;29.88;21.23;;;;;;;;;;9994138;28;20397;-64
2022/11/30 19:06:12;;;;;;;25.65;19.73;;;;;;;;;;9994029;28;20093;-64
2022/11/30 19:11:09;;;;;;;23.45;19.15;;;;;;;;;;9990018;28;20485;-64
2022/11/30 19:16:05;;;;;;;25.05;18.58;;;;;;;;;;9991591;28;20195;-65
2022/11/30 19:20:59;;;;;;;30.23;19.50;;;;;;;;;;9992552;28;20058;-64
2022/11/30 19:25:59;;;;;;;23.33;17.65;;;;;;;;;;9988239;28;20073;-64
2022/11/30 19:30:53;;;;;;;27.80;18.63;;;;;;;;;;9988502;28;20050;-64
2022/11/30 19:35:47;;;;;;;28.88;17.48;;;;;;;;;;9990835;28;20053;-65
2022/11/30 19:40:40;;;;;;;22.80;18.30;;;;;;;;;;9990857;28;20053;-64
2022/11/30 19:45:34;;;;;;;23.52;18.08;;;;;;;;;;9991331;28;20113;-64
2022/11/30 19:50:29;;;;;;;26.73;18.67;;;;;;;;;;9991545;28;20081;-64
2022/11/30 19:55:23;;;;;;;26.92;19.55;;;;;;;;;;9991146;28;20248;-64
2022/11/30 20:00:19;;;;;;;25.33;20.05;;;;;;;;;;9991775;28;20069;-64
2022/11/30 20:05:13;;;;;;;24.48;19.10;;;;;;;;;;9990398;28;20051;-64
2022/11/30 20:10:12;;;;;;;25.00;20.48;;;;;;;;;;9990044;28;20038;-62
2022/11/30 20:15:07;;;;;;;24.63;19.58;;;;;;;;;;9990109;28;20517;-66
2022/11/30 20:20:01;;;;;;;46.92;22.60;;;;;;;;;;9981631;28;20081;-63
2022/11/30 20:24:55;;;;;;;31.10;21.08;;;;;;;;;;9986573;28;20112;-65
2022/11/30 20:29:52;;;;;;;25.83;19.85;;;;;;;;;;9986252;28;20482;-63
2022/11/30 20:34:45;;;;;;;28.73;19.45;;;;;;;;;;9982943;28;20053;-64
2022/11/30 20:39:41;;;;;;;29.08;21.55;;;;;;;;;;9986612;28;20508;-63
2022/11/30 20:44:38;;;;;;;28.05;20.30;;;;;;;;;;9984801;28;20460;-65
2022/11/30 20:49:32;;;;;;;27.50;21.02;;;;;;;;;;9985876;28;20054;-67
2022/11/30 20:54:28;;;;;;;23.90;18.90;;;;;;;;;;9987202;28;20569;-67
2022/11/30 20:59:25;;;;;;;27.40;21.60;;;;;;;;;;9986600;28;20057;-68
2022/11/30 21:04:18;;;;;;;33.17;20.83;;;;;;;;;;9986557;28;20077;-66
2022/11/30 21:09:14;;;;;;;32.78;22.90;;;;;;;;;;9982233;28;20054;-67
2022/11/30 21:14:09;;;;;;;30.92;22.70;;;;;;;;;;9985286;28;20129;-67
2022/11/30 21:19:03;;;;;;;31.25;23.10;;;;;;;;;;9984904;28;20441;-68
2022/11/30 21:23:59;;;;;;;28.70;21.02;;;;;;;;;;9987000;28;20463;-68
2022/11/30 21:28:57;;;;;;;29.95;21.50;;;;;;;;;;9987070;28;20129;-67
2022/11/30 21:33:50;;;;;;;28.00;22.20;;;;;;;;;;9969165;28;20054;-68
2022/11/30 21:38:46;;;;;;;27.85;21.23;;;;;;;;;;9985331;28;20068;-68
2022/11/30 21:43:40;;;;;;;29.65;21.95;;;;;;;;;;9985997;28;20402;-67
2022/11/30 21:48:35;;;;;;;31.08;21.60;;;;;;;;;;9985494;28;20050;-67
2022/11/30 21:53:29;;;;;;;30.83;22.23;;;;;;;;;;9986274;28;20054;-67
2022/11/30 21:58:23;;;;;;;33.15;24.23;;;;;;;;;;9984934;28;20057;-67
2022/11/30 22:03:16;;;;;;;33.28;23.60;;;;;;;;;;9983643;28;20042;-67
2022/11/30 22:08:12;;;;;;;30.48;24.63;;;;;;;;;;9983124;28;20667;-68
2022/11/30 22:13:06;;;;;;;30.77;21.92;;;;;;;;;;9982920;28;20061;-67
2022/11/30 22:18:00;;;;;;;32.50;22.83;;;;;;;;;;9982144;28;20046;-67
2022/11/30 22:22:53;;;;;;;33.97;25.40;;;;;;;;;;9982731;28;20130;-67
2022/11/30 22:27:46;;;;;;;37.67;24.92;;;;;;;;;;9982955;28;20129;-67
2022/11/30 22:32:40;;;;;;;32.97;25.48;;;;;;;;;;9983275;28;20395;-67
2022/11/30 22:37:35;;;;;;;37.60;24.92;;;;;;;;;;9986340;28;20089;-67
2022/11/30 22:42:29;;;;;;;35.72;24.60;;;;;;;;;;9985731;28;20066;-67
2022/11/30 22:47:23;;;;;;;30.55;22.73;;;;;;;;;;9985784;28;20584;-66
2022/11/30 22:52:18;;;;;;;35.17;25.15;;;;;;;;;;9985749;28;20117;-67
2022/11/30 22:57:31;;;;;;;30.42;24.15;;;;;;;;;;9985971;28;20052;-67
2022/11/30 23:02:26;;;;;;;31.70;23.70;;;;;;;;;;9985944;28;20065;-66
2022/11/30 23:07:20;;;;;;;31.65;23.55;;;;;;;;;;9986822;28;20078;-67
2022/11/30 23:12:18;;;;;;;29.90;21.57;;;;;;;;;;9989248;28;20057;-67
2022/11/30 23:17:31;;;;;;;30.15;21.73;;;;;;;;;;9992426;28;20054;-67
2022/11/30 23:22:25;;;;;;;32.05;24.48;;;;;;;;;;9990628;28;20051;-66
2022/11/30 23:27:18;;;;;;;34.60;24.80;;;;;;;;;;9991668;28;20038;-67
2022/11/30 23:32:14;;;;;;;29.20;22.55;;;;;;;;;;9991485;28;20058;-66
2022/11/30 23:37:08;;;;;;;30.45;23.33;;;;;;;;;;9993048;28;20054;-67
2022/11/30 23:42:01;;;;;;;31.67;21.10;;;;;;;;;;9992965;28;20043;-66
2022/11/30 23:46:55;;;;;;;30.98;22.10;;;;;;;;;;9992721;28;20046;-67
2022/11/30 23:51:49;;;;;;;33.92;22.95;;;;;;;;;;9992779;28;20133;-67
2022/11/30 23:56:50;;;;;;;32.03;21.13;;;;;;;;;;9992856;28;20054;-67
